createdAt,value
2023-04-21T00:01:47.940Z,29.92
2023-04-21T00:04:15.211Z,28.25
2023-04-21T00:06:41.851Z,29.00
2023-04-21T00:09:08.935Z,28.20
2023-04-21T00:11:35.767Z,26.20
2023-04-21T00:14:02.327Z,25.40
2023-04-21T00:16:29.004Z,24.95
2023-04-21T00:18:55.535Z,25.88
2023-04-21T00:21:22.030Z,30.50
2023-04-21T00:23:50.137Z,26.80
2023-04-21T00:26:16.677Z,29.17
2023-04-21T00:28:43.177Z,28.55
2023-04-21T00:31:09.703Z,26.65
2023-04-21T00:33:36.188Z,27.33
2023-04-21T00:36:02.749Z,25.13
2023-04-21T00:38:29.292Z,24.92
2023-04-21T00:40:55.736Z,24.83
2023-04-21T00:43:22.238Z,26.17
2023-04-21T00:45:48.730Z,24.88
2023-04-21T00:48:15.252Z,27.92
2023-04-21T00:50:42.255Z,26.52
2023-04-21T00:53:09.204Z,24.48
2023-04-21T00:55:35.793Z,28.30
2023-04-21T00:58:03.491Z,27.90
2023-04-21T01:00:30.121Z,28.60
2023-04-21T01:02:56.944Z,28.58
2023-04-21T01:05:25.652Z,29.67
2023-04-21T01:07:52.144Z,28.35
2023-04-21T01:10:18.608Z,29.23
2023-04-21T01:12:46.087Z,30.75
2023-04-21T01:15:13.883Z,30.13
2023-04-21T01:17:40.440Z,29.63
2023-04-21T01:20:12.117Z,31.75
2023-04-21T01:22:39.968Z,32.30
2023-04-21T01:25:07.179Z,35.03
2023-04-21T01:27:33.523Z,32.45
2023-04-21T01:30:00.161Z,34.42
2023-04-21T01:32:29.273Z,31.20
2023-04-21T01:34:56.751Z,31.83
2023-04-21T01:37:26.337Z,31.30
2023-04-21T01:39:54.847Z,35.65
2023-04-21T01:42:23.390Z,35.30
2023-04-21T01:44:49.913Z,34.05
2023-04-21T01:47:16.896Z,33.22
2023-04-21T01:49:43.426Z,34.13
2023-04-21T01:52:09.839Z,32.47
2023-04-21T01:54:36.549Z,30.73
2023-04-21T01:57:03.492Z,28.67
2023-04-21T01:59:29.956Z,31.77
2023-04-21T02:01:56.642Z,30.67
2023-04-21T02:04:23.280Z,36.22
2023-04-21T02:06:49.823Z,31.65
2023-04-21T02:09:16.339Z,32.10
2023-04-21T02:11:42.900Z,31.00
2023-04-21T02:14:09.427Z,33.25
2023-04-21T02:16:35.965Z,32.08
2023-04-21T02:19:03.086Z,35.33
2023-04-21T02:21:29.466Z,34.30
2023-04-21T02:23:56.180Z,29.83
2023-04-21T02:26:22.580Z,34.22
2023-04-21T02:28:49.936Z,32.28
2023-04-21T02:31:17.205Z,30.75
2023-04-21T02:33:43.568Z,32.08
2023-04-21T02:36:10.112Z,33.58
2023-04-21T02:38:36.499Z,34.13
2023-04-21T02:41:02.871Z,34.28
2023-04-21T02:43:29.303Z,32.00
2023-04-21T02:45:55.709Z,34.42
2023-04-21T02:48:24.824Z,35.03
2023-04-21T02:50:53.158Z,34.80
2023-04-21T02:53:22.455Z,36.53
2023-04-21T02:55:48.872Z,36.55
2023-04-21T02:58:16.468Z,37.13
2023-04-21T03:00:42.810Z,36.40
2023-04-21T03:03:09.483Z,37.72
2023-04-21T03:05:35.984Z,33.45
2023-04-21T03:08:02.390Z,34.85
2023-04-21T03:10:28.769Z,31.95
2023-04-21T03:12:56.137Z,35.58
2023-04-21T03:15:22.577Z,31.38
2023-04-21T03:17:49.247Z,30.83
2023-04-21T03:20:16.018Z,28.83
2023-04-21T03:22:42.555Z,37.85
2023-04-21T03:25:08.962Z,29.45
2023-04-21T03:27:35.487Z,31.63
2023-04-21T03:30:01.860Z,26.30
2023-04-21T03:32:28.475Z,27.85
2023-04-21T03:34:54.968Z,26.95
2023-04-21T03:37:21.396Z,27.75
2023-04-21T03:39:47.777Z,28.63
2023-04-21T03:42:14.120Z,28.15
2023-04-21T03:44:40.652Z,27.23
2023-04-21T03:47:07.001Z,26.50
2023-04-21T03:49:36.463Z,30.13
2023-04-21T03:52:02.933Z,28.20
2023-04-21T03:54:29.320Z,30.85
2023-04-21T03:56:55.660Z,27.15
2023-04-21T03:59:22.164Z,28.92
2023-04-21T04:01:48.591Z,29.42
2023-04-21T04:04:15.358Z,31.25
2023-04-21T04:06:41.990Z,29.35
2023-04-21T04:09:08.912Z,31.25
2023-04-21T04:11:39.789Z,28.35
2023-04-21T04:14:06.234Z,28.98
2023-04-21T04:16:34.525Z,25.70
2023-04-21T04:19:01.431Z,29.33
2023-04-21T04:21:28.702Z,29.55
2023-04-21T04:23:55.565Z,29.85
2023-04-21T04:26:25.644Z,27.48
2023-04-21T04:28:53.075Z,27.30
2023-04-21T04:31:19.530Z,26.38
2023-04-21T04:33:46.055Z,26.25
2023-04-21T04:36:12.927Z,25.75
2023-04-21T04:38:40.159Z,25.70
2023-04-21T04:41:08.772Z,26.15
2023-04-21T04:43:39.013Z,24.98
2023-04-21T04:46:06.033Z,23.88
2023-04-21T04:48:32.392Z,24.88
2023-04-21T04:50:58.712Z,25.73
2023-04-21T04:53:25.673Z,28.95
2023-04-21T04:55:53.466Z,26.00
2023-04-21T04:58:20.456Z,24.90
2023-04-21T05:00:46.851Z,22.58
2023-04-21T05:03:13.365Z,26.63
2023-04-21T05:05:39.866Z,27.83
2023-04-21T05:08:06.320Z,25.52
2023-04-21T05:10:32.703Z,25.58
2023-04-21T05:12:59.085Z,28.52
2023-04-21T05:15:25.556Z,26.63
2023-04-21T05:17:51.953Z,26.83
2023-04-21T05:20:18.427Z,29.23
2023-04-21T05:22:44.801Z,28.65
2023-04-21T05:25:20.358Z,25.25
2023-04-21T05:27:46.714Z,25.42
2023-04-21T05:30:13.125Z,24.75
2023-04-21T05:32:39.537Z,28.05
2023-04-21T05:35:06.485Z,27.67
2023-04-21T05:37:32.899Z,26.55
2023-04-21T05:39:59.256Z,28.05
2023-04-21T05:42:25.618Z,27.83
2023-04-21T05:44:51.957Z,28.55
2023-04-21T05:47:18.352Z,26.55
2023-04-21T05:49:50.103Z,28.60
2023-04-21T05:52:17.618Z,28.92
2023-04-21T05:54:44.068Z,28.10
2023-04-21T05:57:10.785Z,49.15
2023-04-21T05:59:37.149Z,42.13
2023-04-21T06:02:04.001Z,42.10
2023-04-21T06:04:30.888Z,34.75
2023-04-21T06:06:57.454Z,29.55
2023-04-21T06:09:23.811Z,24.52
2023-04-21T06:11:50.703Z,24.50
2023-04-21T06:14:17.240Z,22.35
2023-04-21T06:16:43.751Z,21.73
2023-04-21T06:19:10.415Z,18.50
2023-04-21T06:21:36.773Z,19.10
2023-04-21T06:24:03.222Z,18.75
2023-04-21T06:26:30.258Z,20.17
2023-04-21T06:28:56.680Z,20.02
2023-04-21T06:31:23.166Z,19.00
2023-04-21T06:33:49.577Z,19.02
2023-04-21T06:36:17.826Z,19.40
2023-04-21T06:38:44.567Z,22.30
2023-04-21T06:41:10.905Z,21.77
2023-04-21T06:43:37.751Z,19.42
2023-04-21T06:46:04.104Z,19.88
2023-04-21T06:48:30.752Z,25.25
2023-04-21T06:50:57.207Z,20.83
2023-04-21T06:53:23.739Z,22.05
2023-04-21T06:55:50.210Z,22.15
2023-04-21T06:58:17.656Z,20.75
2023-04-21T07:00:46.036Z,21.23
2023-04-21T07:03:12.777Z,21.75
2023-04-21T07:05:39.273Z,22.98
2023-04-21T07:08:05.778Z,21.90
2023-04-21T07:10:32.223Z,22.70
2023-04-21T07:12:58.735Z,22.77
2023-04-21T07:15:25.102Z,23.10
2023-04-21T07:17:52.030Z,23.27
2023-04-21T07:20:19.368Z,22.52
2023-04-21T07:22:45.771Z,24.80
2023-04-21T07:25:12.516Z,21.33
2023-04-21T07:27:38.996Z,24.08
2023-04-21T07:30:06.013Z,22.27
2023-04-21T07:32:33.974Z,23.95
2023-04-21T07:35:01.805Z,24.05
2023-04-21T07:37:28.154Z,21.25
2023-04-21T07:39:54.484Z,23.10
2023-04-21T07:42:21.032Z,24.20
2023-04-21T07:44:48.763Z,25.30
2023-04-21T07:47:15.100Z,24.83
2023-04-21T07:49:41.509Z,24.00
2023-04-21T07:52:08.648Z,22.73
2023-04-21T07:54:35.102Z,22.08
2023-04-21T07:57:02.439Z,23.77
2023-04-21T07:59:28.863Z,23.23
2023-04-21T08:01:55.333Z,22.52
2023-04-21T08:04:21.930Z,22.85
2023-04-21T08:06:48.478Z,22.33
2023-04-21T08:09:14.958Z,22.55
2023-04-21T08:11:41.290Z,22.20
2023-04-21T08:14:10.009Z,22.45
2023-04-21T08:16:36.807Z,24.42
2023-04-21T08:19:03.646Z,24.85
2023-04-21T08:21:31.357Z,21.48
2023-04-21T08:23:57.909Z,22.77
2023-04-21T08:26:25.248Z,23.45
2023-04-21T08:28:52.626Z,23.52
2023-04-21T08:31:19.484Z,22.95
2023-04-21T08:33:57.960Z,23.88
2023-04-21T08:36:29.884Z,23.10
2023-04-21T08:38:56.843Z,26.27
2023-04-21T08:41:24.365Z,24.38
2023-04-21T08:43:50.906Z,25.50
2023-04-21T08:46:17.675Z,23.98
2023-04-21T08:48:46.245Z,23.08
2023-04-21T08:51:15.124Z,27.42
2023-04-21T08:53:41.549Z,22.83
2023-04-21T08:56:11.276Z,24.27
2023-04-21T08:58:38.369Z,24.27
2023-04-21T09:01:04.905Z,23.95
2023-04-21T09:03:31.535Z,24.67
2023-04-21T09:06:16.670Z,24.75
2023-04-21T09:08:44.715Z,24.20
2023-04-21T09:11:14.925Z,23.80
2023-04-21T09:13:43.211Z,25.75
2023-04-21T09:16:21.159Z,24.85
2023-04-21T09:18:47.911Z,26.77
2023-04-21T09:21:18.565Z,25.25
2023-04-21T09:23:48.101Z,21.90
2023-04-21T09:26:16.224Z,25.70
2023-04-21T09:28:43.974Z,26.92
2023-04-21T09:31:15.395Z,25.45
2023-04-21T09:33:57.896Z,25.52
2023-04-21T09:36:30.161Z,23.73
2023-04-21T09:39:20.753Z,24.70
2023-04-21T09:41:45.632Z,23.70
2023-04-21T09:44:11.985Z,25.55
2023-04-21T09:46:38.493Z,26.98
2023-04-21T09:49:05.462Z,27.08
2023-04-21T09:54:28.401Z,24.75
2023-04-21T09:56:59.008Z,24.90
2023-04-21T09:59:28.177Z,27.20
2023-04-21T10:01:56.181Z,25.75
2023-04-21T10:04:23.980Z,24.80
2023-04-21T10:06:51.462Z,25.88
2023-04-21T10:09:18.921Z,27.33
2023-04-21T10:11:45.366Z,25.13
2023-04-21T10:14:11.773Z,25.67
2023-04-21T10:16:38.430Z,27.52
2023-04-21T10:19:27.967Z,23.52
2023-04-21T10:22:00.057Z,24.67
2023-04-21T10:24:30.234Z,26.77
2023-04-21T10:26:59.704Z,27.77
2023-04-21T10:29:40.311Z,25.30
2023-04-21T10:32:31.411Z,23.40
2023-04-21T10:34:57.801Z,22.75
2023-04-21T10:37:24.208Z,21.40
2023-04-21T10:39:54.813Z,22.55
2023-04-21T10:42:29.306Z,23.40
2023-04-21T10:44:58.646Z,23.70
2023-04-21T10:47:31.315Z,23.75
2023-04-21T10:49:58.539Z,22.38
2023-04-21T10:52:33.920Z,21.83
2023-04-21T10:55:06.997Z,23.67
2023-04-21T10:57:34.782Z,26.42
2023-04-21T11:00:01.339Z,21.45
2023-04-21T11:02:27.848Z,20.73
2023-04-21T11:04:54.552Z,23.05
2023-04-21T11:07:24.385Z,22.45
2023-04-21T11:10:01.728Z,22.10
2023-04-21T11:12:30.397Z,21.30
2023-04-21T11:14:57.128Z,20.63
2023-04-21T11:17:24.514Z,20.98
2023-04-21T11:19:56.120Z,19.50
2023-04-21T11:22:26.801Z,20.48
2023-04-21T11:24:55.826Z,19.95
2023-04-21T11:27:22.743Z,19.50
2023-04-21T11:29:50.132Z,19.83
2023-04-21T11:32:16.870Z,20.50
2023-04-21T11:34:43.370Z,20.48
2023-04-21T11:37:13.935Z,19.25
2023-04-21T11:39:41.291Z,20.50
2023-04-21T11:42:07.652Z,20.30
2023-04-21T11:44:41.785Z,20.17
2023-04-21T11:47:25.165Z,20.13
2023-04-21T11:49:56.437Z,18.70
2023-04-21T11:52:30.830Z,19.88
2023-04-21T11:57:28.270Z,19.65
2023-04-21T11:59:55.178Z,18.13
2023-04-21T12:02:24.337Z,20.17
2023-04-21T12:05:07.843Z,18.38
2023-04-21T12:07:36.410Z,19.63
2023-04-21T12:10:09.417Z,18.98
2023-04-21T12:12:39.049Z,20.02
2023-04-21T12:15:06.668Z,19.65
2023-04-21T12:17:46.366Z,18.77
2023-04-21T12:20:15.975Z,18.40
2023-04-21T12:22:42.376Z,18.73
2023-04-21T12:25:08.984Z,18.85
2023-04-21T12:27:35.570Z,19.98
2023-04-21T12:30:02.170Z,18.55
2023-04-21T12:32:28.614Z,17.80
2023-04-21T12:34:55.082Z,18.60
2023-04-21T12:37:21.685Z,16.45
2023-04-21T12:39:48.027Z,17.35
2023-04-21T12:42:14.393Z,16.38
2023-04-21T12:44:40.821Z,17.38
2023-04-21T12:47:48.403Z,16.58
2023-04-21T12:50:15.835Z,16.40
2023-04-21T12:52:42.183Z,14.85
2023-04-21T12:55:09.003Z,14.65
2023-04-21T12:57:35.761Z,15.55
2023-04-21T13:00:02.183Z,15.07
2023-04-21T13:02:30.849Z,16.75
2023-04-21T13:04:57.302Z,14.77
2023-04-21T13:07:26.918Z,16.40
2023-04-21T13:09:53.366Z,13.95
2023-04-21T13:12:19.723Z,13.57
2023-04-21T13:14:46.239Z,14.27
2023-04-21T13:17:13.066Z,14.13
2023-04-21T13:19:39.972Z,13.68
2023-04-21T13:22:06.518Z,12.38
2023-04-21T13:24:33.290Z,12.05
2023-04-21T13:27:01.824Z,12.63
2023-04-21T13:29:30.190Z,12.10
2023-04-21T13:31:56.881Z,14.38
2023-04-21T13:34:23.290Z,11.77
2023-04-21T13:36:50.528Z,11.95
2023-04-21T13:39:16.997Z,13.95
2023-04-21T13:41:43.337Z,13.25
2023-04-21T13:44:09.734Z,11.85
2023-04-21T13:46:36.209Z,13.52
2023-04-21T13:49:02.654Z,12.55
2023-04-21T13:51:30.099Z,13.57
2023-04-21T13:53:56.494Z,12.32
2023-04-21T13:56:22.836Z,13.10
2023-04-21T13:58:49.671Z,11.73
2023-04-21T14:01:16.355Z,11.60
2023-04-21T14:03:43.270Z,12.75
2023-04-21T14:06:09.897Z,13.50
2023-04-21T14:08:36.249Z,10.38
2023-04-21T14:11:03.482Z,11.35
2023-04-21T14:13:37.544Z,13.38
2023-04-21T14:16:08.550Z,11.45
2023-04-21T14:18:35.278Z,10.07
2023-04-21T14:21:02.416Z,12.80
2023-04-21T14:23:28.796Z,9.20
2023-04-21T14:25:55.374Z,10.75
2023-04-21T14:28:21.923Z,9.57
2023-04-21T14:30:48.325Z,9.32
2023-04-21T14:33:14.875Z,9.07
2023-04-21T14:35:42.263Z,9.75
2023-04-21T14:38:08.763Z,10.90
2023-04-21T14:40:35.220Z,9.38
2023-04-21T14:43:01.636Z,8.95
2023-04-21T14:45:28.187Z,8.52
2023-04-21T14:47:54.706Z,9.00
2023-04-21T14:50:21.677Z,9.07
2023-04-21T14:52:49.480Z,7.97
2023-04-21T14:55:16.501Z,7.25
2023-04-21T14:57:43.010Z,10.30
2023-04-21T15:00:10.543Z,7.05
2023-04-21T15:02:37.288Z,9.45
2023-04-21T15:05:04.046Z,7.50
2023-04-21T15:07:30.460Z,9.30
2023-04-21T15:09:56.817Z,7.32
2023-04-21T15:12:23.271Z,7.82
2023-04-21T15:14:49.796Z,7.45
2023-04-21T15:17:16.298Z,7.75
2023-04-21T15:19:42.621Z,8.00
2023-04-21T15:22:08.982Z,7.93
2023-04-21T15:24:35.482Z,7.63
2023-04-21T15:27:02.252Z,6.85
2023-04-21T15:29:29.019Z,6.70
2023-04-21T15:31:55.539Z,8.23
2023-04-21T15:34:21.894Z,7.88
2023-04-21T15:36:48.279Z,7.40
2023-04-21T15:39:14.772Z,7.55
2023-04-21T15:41:41.243Z,8.25
2023-04-21T15:44:07.742Z,7.13
2023-04-21T15:46:36.793Z,8.68
2023-04-21T15:49:03.286Z,8.25
2023-04-21T15:51:29.645Z,9.38
2023-04-21T15:53:55.977Z,7.07
2023-04-21T15:56:22.419Z,8.30
2023-04-21T15:58:48.769Z,7.25
2023-04-21T16:01:15.443Z,9.05
2023-04-21T16:03:42.238Z,7.38
2023-04-21T16:06:08.880Z,12.00
2023-04-21T16:08:35.379Z,7.15
2023-04-21T16:11:01.858Z,7.32
2023-04-21T16:13:28.613Z,7.78
2023-04-21T16:15:55.189Z,6.68
2023-04-21T16:18:21.735Z,8.07
2023-04-21T16:20:48.245Z,7.10
2023-04-21T16:23:15.384Z,8.60
2023-04-21T16:25:42.054Z,7.43
2023-04-21T16:28:09.186Z,8.05
2023-04-21T16:30:36.437Z,7.88
2023-04-21T16:33:02.940Z,7.50
2023-04-21T16:35:29.502Z,8.20
2023-04-21T16:37:56.125Z,10.48
2023-04-21T16:40:24.054Z,7.45
2023-04-21T16:42:50.497Z,7.32
2023-04-21T16:45:16.901Z,8.73
2023-04-21T16:47:43.401Z,7.60
2023-04-21T16:50:10.327Z,7.53
2023-04-21T16:52:37.098Z,7.10
2023-04-21T16:55:03.851Z,7.68
2023-04-21T16:57:31.092Z,6.40
2023-04-21T16:59:59.074Z,5.97
2023-04-21T17:02:25.853Z,6.45
2023-04-21T17:04:52.529Z,6.10
2023-04-21T17:07:18.981Z,6.80
2023-04-21T17:09:45.414Z,7.25
2023-04-21T17:12:11.911Z,6.43
2023-04-21T17:14:38.674Z,6.65
2023-04-21T17:17:05.562Z,6.43
2023-04-21T17:19:32.145Z,6.65
2023-04-21T17:21:58.762Z,6.15
2023-04-21T17:24:25.796Z,7.18
2023-04-21T17:26:52.316Z,7.07
2023-04-21T17:29:18.737Z,6.15
2023-04-21T17:31:45.373Z,7.03
2023-04-21T17:34:11.867Z,7.00
2023-04-21T17:36:40.560Z,6.43
2023-04-21T17:39:07.003Z,6.05
2023-04-21T17:41:33.503Z,7.43
2023-04-21T17:44:00.940Z,6.03
2023-04-21T17:46:27.555Z,6.03
2023-04-21T17:48:54.075Z,5.97
2023-04-21T17:51:20.633Z,7.38
2023-04-21T17:53:47.053Z,6.05
2023-04-21T17:56:14.385Z,6.97
2023-04-21T17:58:41.486Z,6.82
2023-04-21T18:01:08.354Z,6.07
2023-04-21T18:03:36.218Z,9.00
2023-04-21T18:06:03.631Z,5.75
2023-04-21T18:08:30.415Z,3.47
2023-04-21T18:10:56.822Z,4.10
2023-04-21T18:13:23.236Z,8.77
2023-04-21T18:15:49.672Z,5.10
2023-04-21T18:18:16.158Z,4.85
2023-04-21T18:20:42.709Z,4.60
2023-04-21T18:23:09.178Z,5.63
2023-04-21T18:25:42.703Z,4.93
2023-04-21T18:28:11.455Z,6.32
2023-04-21T18:30:38.804Z,6.10
2023-04-21T18:33:05.870Z,6.60
2023-04-21T18:35:33.812Z,6.47
2023-04-21T18:38:00.632Z,6.80
2023-04-21T18:40:27.133Z,6.35
2023-04-21T18:42:53.621Z,6.38
2023-04-21T18:45:20.054Z,7.82
2023-04-21T18:47:46.762Z,5.45
2023-04-21T18:50:13.210Z,5.47
2023-04-21T18:52:39.774Z,5.88
2023-04-21T18:55:06.402Z,5.38
2023-04-21T18:57:32.870Z,5.65
2023-04-21T19:00:00.224Z,5.07
2023-04-21T19:02:27.037Z,5.55
2023-04-21T19:04:53.557Z,5.07
2023-04-21T19:07:20.002Z,4.80
2023-04-21T19:09:46.465Z,6.97
2023-04-21T19:12:14.305Z,4.43
2023-04-21T19:14:46.645Z,5.45
2023-04-21T19:17:14.609Z,4.20
2023-04-21T19:19:41.336Z,5.47
2023-04-21T19:22:07.761Z,4.40
2023-04-21T19:24:34.316Z,5.20
2023-04-21T19:27:02.120Z,4.15
2023-04-21T19:29:28.610Z,5.80
2023-04-21T19:31:55.062Z,4.68
2023-04-21T19:34:22.066Z,6.53
2023-04-21T19:36:48.816Z,3.70
2023-04-21T19:39:15.249Z,7.40
2023-04-21T19:41:41.594Z,6.93
2023-04-21T19:44:07.982Z,4.30
2023-04-21T19:46:34.522Z,3.95
2023-04-21T19:49:01.088Z,5.13
2023-04-21T19:51:27.764Z,5.47
2023-04-21T19:54:07.905Z,5.30
2023-04-21T19:56:37.913Z,4.63
2023-04-21T19:59:05.462Z,4.40
2023-04-21T20:01:32.955Z,4.65
2023-04-21T20:04:00.013Z,4.90
2023-04-21T20:06:27.144Z,4.45
2023-04-21T20:08:53.524Z,5.10
2023-04-21T20:11:19.898Z,5.75
2023-04-21T20:13:46.653Z,7.63
2023-04-21T20:16:13.111Z,6.55
2023-04-21T20:18:39.771Z,6.82
2023-04-21T20:21:07.182Z,6.30
2023-04-21T20:23:33.609Z,5.50
2023-04-21T20:25:59.984Z,5.40
2023-04-21T20:28:27.430Z,5.32
2023-04-21T20:30:53.929Z,6.18
2023-04-21T20:33:20.396Z,6.35
2023-04-21T20:35:46.784Z,5.65
2023-04-21T20:38:13.112Z,3.90
2023-04-21T20:40:39.606Z,5.05
2023-04-21T20:43:06.226Z,5.30
2023-04-21T20:45:33.270Z,6.03
2023-04-21T20:47:59.943Z,12.50
2023-04-21T20:50:26.715Z,5.65
2023-04-21T20:52:53.153Z,6.57
2023-04-21T20:55:19.557Z,5.45
2023-04-21T20:57:45.962Z,5.70
2023-04-21T21:00:13.071Z,6.18
2023-04-21T21:02:41.050Z,5.72
2023-04-21T21:05:07.892Z,5.78
2023-04-21T21:07:34.364Z,5.40
2023-04-21T21:10:00.819Z,5.38
2023-04-21T21:12:27.199Z,4.95
2023-04-21T21:14:53.586Z,4.97
2023-04-21T21:17:19.968Z,4.97
2023-04-21T21:19:46.420Z,5.30
2023-04-21T21:22:12.760Z,5.68
2023-04-21T21:24:39.155Z,4.97
2023-04-21T21:27:05.704Z,6.63
2023-04-21T21:29:32.110Z,5.03
2023-04-21T21:31:58.493Z,4.65
2023-04-21T21:34:24.878Z,4.68
2023-04-21T21:36:52.949Z,5.50
2023-04-21T21:39:19.276Z,5.10
2023-04-21T21:41:45.590Z,5.05
2023-04-21T21:44:12.048Z,7.20
2023-04-21T21:46:38.478Z,5.10
2023-04-21T21:49:04.900Z,5.95
2023-04-21T21:51:31.242Z,5.10
2023-04-21T21:53:57.650Z,5.28
2023-04-21T21:56:25.602Z,5.40
2023-04-21T21:58:51.997Z,4.50
2023-04-21T22:01:18.518Z,4.75
2023-04-21T22:03:45.253Z,6.35
2023-04-21T22:06:12.319Z,5.07
2023-04-21T22:08:39.614Z,5.75
2023-04-21T22:11:06.017Z,4.28
2023-04-21T22:13:32.396Z,5.35
2023-04-21T22:15:58.780Z,5.90
2023-04-21T22:18:25.451Z,4.63
2023-04-21T22:20:52.093Z,4.53
2023-04-21T22:23:20.273Z,4.07
2023-04-21T22:25:46.601Z,3.95
2023-04-21T22:28:13.007Z,4.97
2023-04-21T22:30:39.397Z,4.15
2023-04-21T22:33:05.888Z,4.25
2023-04-21T22:35:32.318Z,4.53
2023-04-21T22:37:58.674Z,4.68
2023-04-21T22:40:25.149Z,4.10
2023-04-21T22:42:51.542Z,3.60
2023-04-21T22:45:18.043Z,4.97
2023-04-21T22:47:44.454Z,4.10
2023-04-21T22:50:10.920Z,3.63
2023-04-21T22:52:37.636Z,3.92
2023-04-21T22:55:05.143Z,3.75
2023-04-21T22:57:32.593Z,3.25
2023-04-21T22:59:59.009Z,3.60
2023-04-21T23:02:25.425Z,4.90
2023-04-21T23:04:52.439Z,5.45
2023-04-21T23:07:19.074Z,3.45
2023-04-21T23:09:45.909Z,3.70
2023-04-21T23:12:12.319Z,3.47
2023-04-21T23:14:38.693Z,3.88
2023-04-21T23:17:05.224Z,3.00
2023-04-21T23:19:31.619Z,3.30
2023-04-21T23:21:58.191Z,3.53
2023-04-21T23:24:24.612Z,3.42
2023-04-21T23:26:51.023Z,4.38
2023-04-21T23:29:17.573Z,5.18
2023-04-21T23:31:44.117Z,3.58
2023-04-21T23:34:10.527Z,3.22
2023-04-21T23:36:37.143Z,3.25
2023-04-21T23:39:03.508Z,2.72
2023-04-21T23:41:29.913Z,3.30
2023-04-21T23:43:56.233Z,4.15
2023-04-21T23:46:22.712Z,5.25
2023-04-21T23:48:49.199Z,7.07
2023-04-21T23:51:15.827Z,2.80
2023-04-21T23:53:42.281Z,2.75
2023-04-21T23:56:08.723Z,2.97
2023-04-21T23:58:35.048Z,3.22
